Time;durP1;ratioP1;P1;durP2;ratioP2;P2;SDS_P1;SDS_P2;PMS_P1;PMS_P2;Temp;Humidity;BMP_temperature;BMP_pressure;BME280_temperature;BME280_humidity;BME280_pressure;Samples;Min_cycle;Max_cycle;Signal;HPM_P1;HPM_P2
2022/12/06 00:00:22;;;;;;;9.10;8.17;;;;;20.40;100802.00;;;;2078780;28;20222;-54
2022/12/06 00:01:41;;;;;;;9.70;8.70;;;;;20.40;100801.00;;;;2078968;28;20483;-54
2022/12/06 00:02:42;;;;;;;9.10;8.18;;;;;20.40;100801.00;;;;2083477;28;20683;-52
2022/12/06 00:03:43;;;;;;;9.33;7.87;;;;;20.40;100795.00;;;;2083161;28;20202;-51
2022/12/06 00:04:45;;;;;;;9.27;8.30;;;;;20.30;100804.00;;;;2078786;28;20976;-51
2022/12/06 00:05:45;;;;;;;9.20;8.35;;;;;20.40;100801.00;;;;2078110;28;20205;-52
2022/12/06 00:06:47;;;;;;;7.93;7.13;;;;;20.30;100806.00;;;;2078835;28;20255;-51
2022/12/06 00:07:48;;;;;;;9.27;8.35;;;;;20.30;100806.00;;;;2078905;28;20706;-53
2022/12/06 00:08:49;;;;;;;9.98;8.98;;;;;20.30;100797.00;;;;2086900;28;21045;-51
2022/12/06 00:09:49;;;;;;;9.47;8.27;;;;;20.40;100795.00;;;;2086898;28;20225;-53
2022/12/06 00:10:50;;;;;;;9.30;8.40;;;;;20.40;100801.00;;;;2086026;28;20950;-53
2022/12/06 00:11:50;;;;;;;10.93;9.20;;;;;20.40;100799.00;;;;2085365;28;20220;-52
2022/12/06 00:12:51;;;;;;;8.80;8.00;;;;;20.30;100795.00;;;;2087091;28;20278;-52
2022/12/06 00:13:55;;;;;;;9.47;8.57;;;;;20.30;100793.00;;;;2086978;28;20796;-51
2022/12/06 00:14:55;;;;;;;9.10;8.20;;;;;20.30;100795.00;;;;2086441;28;20243;-53
2022/12/06 00:15:59;;;;;;;9.70;8.20;;;;;20.30;100796.00;;;;2086017;28;20216;-52
2022/12/06 00:16:59;;;;;;;9.63;8.43;;;;;20.30;100799.00;;;;2084078;28;20586;-53
2022/12/06 00:18:00;;;;;;;9.97;8.50;;;;;20.20;100789.00;;;;2086989;28;20227;-53
2022/12/06 00:19:00;;;;;;;9.93;8.83;;;;;20.30;100789.00;;;;2086683;28;20281;-53
2022/12/06 00:20:01;;;;;;;9.23;8.33;;;;;20.20;100793.00;;;;2086398;28;20223;-52
2022/12/06 00:21:05;;;;;;;9.70;8.70;;;;;20.20;100796.00;;;;2081174;28;20701;-51
2022/12/06 00:22:06;;;;;;;9.25;8.25;;;;;20.20;100792.00;;;;2080972;28;20523;-52
2022/12/06 00:23:06;;;;;;;8.80;8.00;;;;;20.30;100788.00;;;;2087073;28;20213;-53
2022/12/06 00:24:11;;;;;;;9.83;8.70;;;;;20.20;100796.00;;;;2086854;28;20286;-52
2022/12/06 00:25:11;;;;;;;10.45;8.88;;;;;20.30;100792.00;;;;2086792;28;20205;-51
2022/12/06 00:26:12;;;;;;;8.80;7.90;;;;;20.30;100793.00;;;;2086998;28;20216;-52
2022/12/06 00:27:12;;;;;;;9.03;8.13;;;;;20.20;100790.00;;;;2086775;28;20294;-52
2022/12/06 00:28:13;;;;;;;9.87;8.40;;;;;20.20;100778.00;;;;2086935;28;20213;-52
2022/12/06 00:29:18;;;;;;;9.60;8.60;;;;;20.20;100792.00;;;;2086719;28;20213;-52
2022/12/06 00:30:19;;;;;;;10.23;8.68;;;;;20.20;100797.00;;;;2086763;28;20208;-53
2022/12/06 00:31:20;;;;;;;10.23;9.23;;;;;20.20;100790.00;;;;2085892;28;20630;-51
2022/12/06 00:32:20;;;;;;;9.63;8.63;;;;;20.20;100785.00;;;;2086095;28;20650;-53
2022/12/06 00:33:21;;;;;;;9.50;8.47;;;;;20.20;100785.00;;;;2079429;28;20336;-52
2022/12/06 00:34:21;;;;;;;9.83;7.90;;;;;20.20;100786.00;;;;2078671;28;20236;-51
2022/12/06 00:35:22;;;;;;;10.40;8.60;;;;;20.20;100785.00;;;;2077942;28;20647;-53
2022/12/06 00:36:24;;;;;;;9.77;8.30;;;;;20.10;100781.00;;;;2078161;28;20229;-51
2022/12/06 00:37:24;;;;;;;9.68;8.68;;;;;20.20;100775.00;;;;2078852;28;20225;-52
2022/12/06 00:38:25;;;;;;;10.63;8.60;;;;;20.10;100789.00;;;;2078216;28;20217;-54
2022/12/06 00:39:25;;;;;;;11.30;9.20;;;;;20.10;100781.00;;;;2078336;28;20224;-51
2022/12/06 00:40:26;;;;;;;9.60;8.70;;;;;20.10;100783.00;;;;2078385;28;20228;-52
2022/12/06 00:41:26;;;;;;;9.90;8.67;;;;;20.20;100785.00;;;;2078837;28;20271;-52
2022/12/06 00:42:27;;;;;;;9.80;8.63;;;;;20.10;100789.00;;;;2077110;28;20233;-52
2022/12/06 00:43:27;;;;;;;11.70;9.53;;;;;20.10;100785.00;;;;2078102;28;20563;-54
2022/12/06 00:44:27;;;;;;;9.87;8.87;;;;;20.10;100786.00;;;;2077583;28;20221;-52
2022/12/06 00:45:28;;;;;;;11.53;9.50;;;;;20.10;100782.00;;;;2078723;28;20220;-51
2022/12/06 00:46:29;;;;;;;10.20;9.03;;;;;20.10;100789.00;;;;2078819;28;20221;-53
2022/12/06 00:47:29;;;;;;;10.45;9.20;;;;;20.10;100792.00;;;;2078661;28;20329;-53
2022/12/06 00:48:30;;;;;;;9.60;8.60;;;;;20.10;100789.00;;;;2077932;28;20260;-53
2022/12/06 00:49:30;;;;;;;10.83;9.20;;;;;20.10;100792.00;;;;2077551;28;20220;-52
2022/12/06 00:50:30;;;;;;;10.30;9.20;;;;;20.10;100795.00;;;;2078388;28;20221;-53
2022/12/06 00:51:31;;;;;;;10.47;8.60;;;;;20.10;100792.00;;;;2083250;28;20220;-52
2022/12/06 00:52:32;;;;;;;9.97;8.70;;;;;20.00;100789.00;;;;2086002;28;20223;-54
2022/12/06 00:53:32;;;;;;;10.37;8.47;;;;;20.10;100797.00;;;;2086966;28;20482;-54
2022/12/06 00:54:33;;;;;;;10.27;9.17;;;;;20.10;100788.00;;;;2086020;28;20294;-53
2022/12/06 00:55:33;;;;;;;11.03;9.40;;;;;20.10;100792.00;;;;2081658;28;20271;-55
2022/12/06 00:56:34;;;;;;;10.60;9.50;;;;;20.00;100792.00;;;;2078725;28;21002;-55
2022/12/06 00:57:34;;;;;;;11.02;9.27;;;;;20.10;100796.00;;;;2078019;28;20241;-54
2022/12/06 00:58:35;;;;;;;11.30;9.10;;;;;20.10;100792.00;;;;2078294;28;20280;-55
2022/12/06 00:59:35;;;;;;;11.30;9.03;;;;;20.10;100800.00;;;;2077899;28;20229;-56
2022/12/06 01:00:36;;;;;;;9.17;8.27;;;;;20.00;100797.00;;;;2078314;28;20236;-57
2022/12/06 01:01:36;;;;;;;9.43;8.37;;;;;20.00;100797.00;;;;2078257;28;20213;-52
2022/12/06 01:02:36;;;;;;;11.30;9.27;;;;;20.00;100795.00;;;;2077574;28;20226;-55
2022/12/06 01:03:37;;;;;;;10.07;8.17;;;;;20.00;100797.00;;;;2078131;28;20197;-52
2022/12/06 01:04:38;;;;;;;10.43;8.43;;;;;20.00;100801.00;;;;2077800;28;20676;-51
2022/12/06 01:05:45;;;;;;;10.23;9.10;;;;;20.00;100795.00;;;;2077630;28;20245;-51
2022/12/06 01:06:45;;;;;;;10.60;8.77;;;;;20.00;100797.00;;;;2078577;28;20225;-51
2022/12/06 01:07:46;;;;;;;10.03;8.57;;;;;20.10;100796.00;;;;2079189;28;20249;-56
2022/12/06 01:08:46;;;;;;;9.80;8.53;;;;;20.10;100793.00;;;;2078438;28;20228;-54
2022/12/06 01:09:46;;;;;;;9.70;8.53;;;;;20.00;100794.00;;;;2078562;28;20247;-54
2022/12/06 01:10:51;;;;;;;9.50;8.50;;;;;20.00;100795.00;;;;2080697;28;20307;-53
2022/12/06 01:11:52;;;;;;;9.45;8.18;;;;;20.00;100792.00;;;;2085151;28;20217;-52
2022/12/06 01:12:52;;;;;;;11.20;8.80;;;;;20.00;100761.00;;;;2083262;28;20240;-52
2022/12/06 01:13:53;;;;;;;9.57;8.60;;;;;20.00;100794.00;;;;2077869;28;20218;-51
2022/12/06 01:14:53;;;;;;;11.03;8.70;;;;;20.00;100796.00;;;;2078607;28;20325;-52
2022/12/06 01:15:53;;;;;;;9.77;8.67;;;;;20.00;100792.00;;;;2078871;28;20269;-54
2022/12/06 01:16:54;;;;;;;11.50;8.70;;;;;20.00;100797.00;;;;2078472;28;20526;-53
2022/12/06 01:17:54;;;;;;;9.30;8.33;;;;;20.00;100801.00;;;;2078629;28;20210;-53
2022/12/06 01:18:57;;;;;;;10.40;8.40;;;;;20.00;100807.00;;;;2078323;28;20217;-54
2022/12/06 01:19:57;;;;;;;9.38;8.43;;;;;20.00;100795.00;;;;2077688;28;20217;-53
2022/12/06 01:21:08;;;;;;;9.43;8.53;;;;;20.00;100803.00;;;;2076882;28;20334;-55
2022/12/06 01:22:08;;;;;;;9.93;8.60;;;;;20.00;100796.00;;;;2081434;28;20299;-54
2022/12/06 01:23:08;;;;;;;9.70;8.70;;;;;19.90;100790.00;;;;2086167;28;20224;-54
2022/12/06 01:24:09;;;;;;;9.20;8.30;;;;;19.90;100792.00;;;;2078041;28;20727;-55
2022/12/06 01:25:09;;;;;;;9.37;8.37;;;;;20.00;100794.00;;;;2085234;28;20581;-59
2022/12/06 01:26:21;;;;;;;9.80;8.70;;;;;19.90;100794.00;;;;2085856;28;20270;-52
2022/12/06 01:27:21;;;;;;;9.18;8.15;;;;;20.00;100800.00;;;;2081154;28;20213;-54
2022/12/06 01:28:21;;;;;;;9.33;8.37;;;;;19.90;100797.00;;;;2080105;28;20356;-54
2022/12/06 01:29:22;;;;;;;9.90;8.23;;;;;20.00;100788.00;;;;2080005;28;20752;-52
2022/12/06 01:30:22;;;;;;;11.23;8.60;;;;;19.90;100797.00;;;;2080023;28;20217;-51
2022/12/06 01:31:22;;;;;;;9.10;7.80;;;;;19.90;100793.00;;;;2079858;28;20682;-54
2022/12/06 01:32:23;;;;;;;11.07;8.87;;;;;19.90;100797.00;;;;2078664;28;20693;-53
2022/12/06 01:33:23;;;;;;;9.23;7.93;;;;;19.90;100792.00;;;;2079935;28;20683;-55
2022/12/06 01:34:23;;;;;;;9.20;8.30;;;;;19.90;100793.00;;;;2079999;28;20210;-55
2022/12/06 01:35:24;;;;;;;10.93;8.80;;;;;19.90;100794.00;;;;2080104;28;20213;-53
2022/12/06 01:36:24;;;;;;;10.00;7.80;;;;;19.80;100795.00;;;;2080020;28;20205;-51
2022/12/06 01:37:25;;;;;;;9.00;8.10;;;;;19.90;100800.00;;;;2070647;28;20217;-53
2022/12/06 01:38:25;;;;;;;9.40;8.23;;;;;19.80;100793.00;;;;2070725;28;20214;-51
2022/12/06 01:39:25;;;;;;;9.03;7.70;;;;;19.90;100797.00;;;;2079977;28;20238;-53
2022/12/06 01:40:26;;;;;;;9.10;8.20;;;;;19.90;100790.00;;;;2079221;28;20222;-51
2022/12/06 01:41:27;;;;;;;9.07;8.05;;;;;19.90;100793.00;;;;2080016;28;20740;-54
2022/12/06 01:42:27;;;;;;;9.63;8.40;;;;;19.80;100793.00;;;;2078709;28;20213;-53
2022/12/06 01:43:34;;;;;;;8.90;7.90;;;;;19.80;100796.00;;;;2079897;28;20201;-54
2022/12/06 01:44:51;;;;;;;8.98;8.07;;;;;19.80;100794.00;;;;2079966;28;20300;-53
2022/12/06 01:45:52;;;;;;;8.35;7.53;;;;;19.80;100794.00;;;;2079769;28;20213;-55
2022/12/06 01:46:52;;;;;;;9.23;8.27;;;;;19.80;100789.00;;;;2079040;28;20288;-56
2022/12/06 01:47:52;;;;;;;10.30;8.70;;;;;19.80;100790.00;;;;2079041;28;20693;-53
2022/12/06 01:49:18;;;;;;;8.13;7.20;;;;;19.80;100795.00;;;;2078628;28;20205;-53
2022/12/06 01:50:21;;;;;;;8.05;7.25;;;;;19.80;100790.00;;;;2078648;28;20209;-55
2022/12/06 01:51:21;;;;;;;9.13;7.95;;;;;19.80;100790.00;;;;2070668;28;20280;-53
2022/12/06 01:52:27;;;;;;;8.53;7.73;;;;;19.80;100796.00;;;;2070111;28;20304;-53
2022/12/06 01:53:27;;;;;;;8.88;7.72;;;;;19.70;100797.00;;;;2071342;28;20642;-54
2022/12/06 01:54:28;;;;;;;8.27;7.47;;;;;19.80;100791.00;;;;2077726;28;20217;-53
2022/12/06 01:55:30;;;;;;;8.30;7.10;;;;;19.80;100791.00;;;;2079819;28;20337;-54
2022/12/06 01:56:30;;;;;;;8.77;7.88;;;;;19.80;100788.00;;;;2079225;28;20216;-54
2022/12/06 01:57:30;;;;;;;11.23;8.30;;;;;19.80;100787.00;;;;2079115;28;20227;-53
2022/12/06 01:58:34;;;;;;;8.60;7.70;;;;;19.80;100787.00;;;;2078546;28;20243;-54
2022/12/06 01:59:34;;;;;;;9.85;7.90;;;;;19.80;100786.00;;;;2078757;28;20224;-53
2022/12/06 02:00:35;;;;;;;8.93;7.43;;;;;19.80;100791.00;;;;2078902;28;20642;-55
2022/12/06 02:01:35;;;;;;;9.87;8.13;;;;;19.80;100779.00;;;;2079703;28;20635;-55
2022/12/06 02:02:36;;;;;;;9.47;8.50;;;;;19.80;100786.00;;;;2078180;28;20218;-51
2022/12/06 02:03:36;;;;;;;10.30;8.57;;;;;19.80;100785.00;;;;2078440;28;20264;-55
2022/12/06 02:04:36;;;;;;;10.33;8.23;;;;;19.80;100780.00;;;;2079005;28;20678;-55
2022/12/06 02:05:37;;;;;;;8.77;7.90;;;;;19.80;100772.00;;;;2079093;28;20689;-55
2022/12/06 02:06:38;;;;;;;9.27;7.80;;;;;19.80;100778.00;;;;2078373;28;20707;-55
2022/12/06 02:07:38;;;;;;;10.50;8.60;;;;;19.80;100781.00;;;;2087289;28;20223;-52
2022/12/06 02:08:38;;;;;;;8.40;7.60;;;;;19.80;100776.00;;;;2078919;28;20785;-55
2022/12/06 02:09:38;;;;;;;8.13;7.37;;;;;19.80;100776.00;;;;2086807;28;20685;-54
2022/12/06 02:10:39;;;;;;;8.70;7.87;;;;;19.70;100781.00;;;;2086596;28;20219;-53
2022/12/06 02:11:40;;;;;;;8.60;7.80;;;;;19.80;100779.00;;;;2086627;28;20205;-55
2022/12/06 02:12:40;;;;;;;8.15;7.35;;;;;19.70;100781.00;;;;2086602;28;20362;-53
2022/12/06 02:13:41;;;;;;;9.00;7.87;;;;;19.70;100777.00;;;;2086821;28;20213;-54
2022/12/06 02:14:42;;;;;;;9.70;8.70;;;;;19.70;100770.00;;;;2086730;28;20737;-51
2022/12/06 02:16:04;;;;;;;9.10;8.00;;;;;19.70;100778.00;;;;2086826;28;20212;-53
2022/12/06 02:17:25;;;;;;;8.55;7.50;;;;;19.70;100781.00;;;;2087067;28;20227;-53
2022/12/06 02:18:33;;;;;;;9.00;7.88;;;;;19.70;100770.00;;;;2086657;28;20804;-54
2022/12/06 02:19:51;;;;;;;8.90;7.70;;;;;19.70;100779.00;;;;2087169;28;20205;-55
2022/12/06 02:21:15;;;;;;;8.18;7.25;;;;;19.70;100772.00;;;;2086460;28;20585;-54
2022/12/06 02:22:35;;;;;;;8.25;7.45;;;;;19.70;100769.00;;;;2086862;28;20271;-53
2022/12/06 02:23:51;;;;;;;8.75;7.63;;;;;19.70;100771.00;;;;2086661;28;20705;-55
2022/12/06 02:25:44;;;;;;;10.27;8.75;;;;;19.70;100776.00;;;;2087049;28;20209;-54
2022/12/06 02:26:46;;;;;;;9.85;7.90;;;;;19.70;100775.00;;;;2069075;28;20226;-52
2022/12/06 02:28:04;;;;;;;11.80;8.05;;;;;19.70;100777.00;;;;2062033;28;20227;-55
2022/12/06 02:29:32;;;;;;;9.25;7.95;;;;;19.70;100775.00;;;;2064094;28;20519;-54
2022/12/06 02:30:45;;;;;;;9.70;8.70;;;;;19.70;100771.00;;;;2069984;28;20221;-54
2022/12/06 02:31:59;;;;;;;8.57;7.43;;;;;19.70;100779.00;;;;2061916;28;21011;-51
2022/12/06 02:33:04;;;;;;;9.43;8.10;;;;;19.70;100780.00;;;;2066333;28;20591;-54
2022/12/06 02:34:30;;;;;;;9.55;8.07;;;;;19.60;100767.00;;;;2072391;28;20241;-54
2022/12/06 02:35:38;;;;;;;10.23;8.27;;;;;19.60;100772.00;;;;2073856;28;20213;-54
2022/12/06 02:36:58;;;;;;;9.55;7.97;;;;;19.60;100766.00;;;;2071111;28;20210;-55
2022/12/06 02:38:29;;;;;;;8.75;7.80;;;;;19.60;100762.00;;;;2084255;28;20208;-53
2022/12/06 02:39:33;;;;;;;9.32;8.00;;;;;19.60;100764.00;;;;2074390;28;20221;-55
2022/12/06 02:40:42;;;;;;;10.23;7.47;;;;;19.60;100762.00;;;;2079344;28;20318;-52
2022/12/06 02:41:50;;;;;;;9.60;8.07;;;;;19.60;100764.00;;;;2086664;28;20228;-55
2022/12/06 02:42:58;;;;;;;9.32;8.02;;;;;19.60;100765.00;;;;2086166;28;20236;-59
2022/12/06 02:44:02;;;;;;;9.20;8.18;;;;;19.60;100751.00;;;;2085933;28;20217;-55
2022/12/06 02:45:07;;;;;;;10.43;8.60;;;;;19.70;100757.00;;;;2079016;28;20232;-54
2022/12/06 02:46:07;;;;;;;9.32;7.95;;;;;19.60;100755.00;;;;2071556;28;20701;-54
2022/12/06 02:47:10;;;;;;;9.37;8.37;;;;;19.60;100760.00;;;;2079159;28;20210;-54
2022/12/06 02:48:10;;;;;;;9.05;8.13;;;;;19.60;100746.00;;;;2078833;28;20209;-52
2022/12/06 02:49:11;;;;;;;9.50;8.50;;;;;19.60;100755.00;;;;2086944;28;20671;-54
2022/12/06 02:50:15;;;;;;;9.40;7.60;;;;;19.60;100760.00;;;;2086761;28;20216;-54
2022/12/06 02:51:16;;;;;;;9.57;7.85;;;;;19.60;100755.00;;;;2079022;28;20276;-55
2022/12/06 02:52:17;;;;;;;8.70;7.73;;;;;19.60;100751.00;;;;2077865;28;21135;-53
2022/12/06 02:53:18;;;;;;;10.50;8.50;;;;;19.60;100760.00;;;;2086768;28;21001;-54
2022/12/06 02:54:18;;;;;;;9.18;7.63;;;;;19.60;100758.00;;;;2078553;28;20213;-51
2022/12/06 02:55:20;;;;;;;10.03;8.40;;;;;19.60;100755.00;;;;2085925;28;20215;-53
2022/12/06 02:56:21;;;;;;;9.45;7.95;;;;;19.60;100760.00;;;;2070557;28;20587;-53
2022/12/06 02:57:26;;;;;;;8.43;7.53;;;;;19.60;100752.00;;;;2054025;28;20306;-54
2022/12/06 02:58:26;;;;;;;8.60;7.50;;;;;19.50;100765.00;;;;2062672;28;20746;-53
2022/12/06 02:59:27;;;;;;;9.93;7.93;;;;;19.60;100751.00;;;;2078634;28;20256;-53
2022/12/06 03:00:28;;;;;;;9.20;7.97;;;;;19.60;100756.00;;;;2079223;28;20292;-52
2022/12/06 03:01:30;;;;;;;9.40;7.88;;;;;19.60;100762.00;;;;2082492;28;20379;-56
2022/12/06 03:02:30;;;;;;;8.88;7.90;;;;;19.60;100760.00;;;;2086471;28;20266;-54
2022/12/06 03:03:41;;;;;;;9.33;8.10;;;;;19.60;100756.00;;;;2086948;28;20217;-51
2022/12/06 03:05:09;;;;;;;9.15;7.55;;;;;19.60;100762.00;;;;2086584;28;20799;-51
2022/12/06 03:06:23;;;;;;;8.82;7.78;;;;;19.60;100758.00;;;;2086927;28;20209;-55
2022/12/06 03:07:44;;;;;;;8.98;7.75;;;;;19.60;100753.00;;;;2086717;28;20299;-51
2022/12/06 03:09:09;;;;;;;10.35;8.00;;;;;19.60;100752.00;;;;2086816;28;20224;-54
2022/12/06 03:10:28;;;;;;;9.70;8.18;;;;;19.50;100763.00;;;;2087074;28;20287;-53
2022/12/06 03:11:44;;;;;;;10.75;8.32;;;;;19.50;100762.00;;;;2086381;28;20208;-53
2022/12/06 03:13:09;;;;;;;9.63;7.85;;;;;19.50;100764.00;;;;2086144;28;20223;-53
2022/12/06 03:14:13;;;;;;;10.88;8.85;;;;;19.50;100762.00;;;;2086820;28;20713;-55
2022/12/06 03:15:19;;;;;;;9.10;7.55;;;;;19.50;100761.00;;;;2086641;28;20753;-56
2022/12/06 03:16:31;;;;;;;8.65;7.75;;;;;19.50;100752.00;;;;2083021;28;20692;-55
2022/12/06 03:17:53;;;;;;;10.27;7.68;;;;;19.50;100757.00;;;;2086644;28;20910;-55
2022/12/06 03:19:02;;;;;;;11.77;9.00;;;;;19.50;100756.00;;;;2086935;28;20596;-54
2022/12/06 03:20:08;;;;;;;11.07;8.05;;;;;19.50;100762.00;;;;2086405;28;20263;-52
2022/12/06 03:21:14;;;;;;;9.38;7.97;;;;;19.50;100757.00;;;;2078426;28;20226;-55
2022/12/06 03:22:19;;;;;;;8.27;7.38;;;;;19.50;100769.00;;;;2078466;28;20212;-52
2022/12/06 03:23:22;;;;;;;8.90;7.65;;;;;19.50;100763.00;;;;2077554;28;20209;-55
2022/12/06 03:24:23;;;;;;;11.88;8.57;;;;;19.50;100759.00;;;;2070326;28;20272;-55
2022/12/06 03:25:23;;;;;;;10.07;8.33;;;;;19.50;100757.00;;;;2077625;28;20570;-54
2022/12/06 03:26:25;;;;;;;9.40;7.90;;;;;19.50;100766.00;;;;2070364;28;20225;-55
2022/12/06 03:27:26;;;;;;;8.60;7.40;;;;;19.50;100758.00;;;;2076239;28;20213;-51
2022/12/06 03:28:26;;;;;;;10.67;8.57;;;;;19.50;100722.00;;;;2086161;28;20213;-54
2022/12/06 03:29:27;;;;;;;9.47;7.93;;;;;19.50;100759.00;;;;2075158;28;20214;-54
2022/12/06 03:30:29;;;;;;;10.60;8.20;;;;;19.50;100757.00;;;;2062138;28;20219;-54
2022/12/06 03:31:29;;;;;;;8.90;7.70;;;;;19.50;100754.00;;;;2061959;28;20454;-53
2022/12/06 03:32:31;;;;;;;10.93;8.67;;;;;19.50;100761.00;;;;2069305;28;20294;-52
2022/12/06 03:33:31;;;;;;;9.45;8.10;;;;;19.50;100755.00;;;;2078114;28;20209;-52
2022/12/06 03:34:35;;;;;;;11.50;8.37;;;;;19.50;100751.00;;;;2078287;28;20267;-54
2022/12/06 03:35:35;;;;;;;10.05;8.45;;;;;19.50;100752.00;;;;2078289;28;20606;-52
2022/12/06 03:36:36;;;;;;;10.60;8.60;;;;;19.50;100756.00;;;;2077900;28;20345;-53
2022/12/06 03:37:37;;;;;;;10.23;7.80;;;;;19.50;100755.00;;;;2070224;28;20316;-52
2022/12/06 03:38:45;;;;;;;10.57;8.48;;;;;19.50;100753.00;;;;2061940;28;20229;-52
2022/12/06 03:40:06;;;;;;;9.60;8.60;;;;;19.50;100759.00;;;;2063981;28;20603;-52
2022/12/06 03:41:07;;;;;;;8.73;7.72;;;;;19.50;100750.00;;;;2085500;28;20236;-54
2022/12/06 03:42:08;;;;;;;10.43;8.47;;;;;19.40;100752.00;;;;2085372;28;20218;-53
2022/12/06 03:43:09;;;;;;;10.55;8.45;;;;;19.40;100743.00;;;;2086383;28;20213;-50
2022/12/06 03:44:09;;;;;;;10.33;8.60;;;;;19.50;100751.00;;;;2086603;28;20284;-53
2022/12/06 03:45:10;;;;;;;9.67;8.00;;;;;19.50;100752.00;;;;2086580;28;20205;-52
2022/12/06 03:46:12;;;;;;;11.13;9.33;;;;;19.40;100756.00;;;;2086285;28;20209;-51
2022/12/06 03:47:16;;;;;;;11.98;8.13;;;;;19.40;100758.00;;;;2078284;28;20944;-51
2022/12/06 03:48:20;;;;;;;9.70;8.13;;;;;19.40;100754.00;;;;2086252;28;20213;-51
2022/12/06 03:49:26;;;;;;;10.68;8.40;;;;;19.40;100755.00;;;;2086073;28;20225;-51
2022/12/06 03:50:30;;;;;;;9.75;8.52;;;;;19.40;100751.00;;;;2085085;28;20217;-53
2022/12/06 03:51:31;;;;;;;9.85;8.82;;;;;19.40;100753.00;;;;2085237;28;20271;-53
2022/12/06 03:52:32;;;;;;;10.73;8.68;;;;;19.30;100753.00;;;;2068419;28;20214;-53
2022/12/06 03:53:32;;;;;;;9.50;8.03;;;;;19.40;100743.00;;;;2069662;28;20225;-53
2022/12/06 03:54:32;;;;;;;11.33;9.00;;;;;19.40;100756.00;;;;2077892;28;20224;-52
2022/12/06 03:55:33;;;;;;;11.30;9.37;;;;;19.40;100758.00;;;;2082254;28;20247;-52
2022/12/06 03:56:35;;;;;;;9.70;8.23;;;;;19.40;100748.00;;;;2083220;28;20731;-52
2022/12/06 03:57:35;;;;;;;9.35;7.82;;;;;19.40;100750.00;;;;2085916;28;20217;-52
2022/12/06 03:58:36;;;;;;;9.97;8.33;;;;;19.40;100750.00;;;;2086065;28;20227;-53
2022/12/06 03:59:36;;;;;;;9.77;8.40;;;;;19.40;100747.00;;;;2086724;28;20220;-52
2022/12/06 04:00:36;;;;;;;12.47;8.70;;;;;19.40;100742.00;;;;2086726;28;20217;-52
2022/12/06 04:01:37;;;;;;;10.27;8.87;;;;;19.30;100747.00;;;;2086468;28;20286;-53
2022/12/06 04:02:37;;;;;;;10.20;8.73;;;;;19.40;100745.00;;;;2085555;28;20245;-52
2022/12/06 04:03:37;;;;;;;9.97;8.90;;;;;19.40;100746.00;;;;2086381;28;20571;-53
2022/12/06 04:04:39;;;;;;;10.20;8.47;;;;;19.40;100750.00;;;;2086456;28;20573;-51
2022/12/06 04:05:39;;;;;;;9.63;7.85;;;;;19.40;100742.00;;;;2086578;28;20219;-53
2022/12/06 04:06:40;;;;;;;8.83;7.90;;;;;19.40;100740.00;;;;2086641;28;20205;-51
2022/12/06 04:07:40;;;;;;;9.07;8.13;;;;;19.40;100746.00;;;;2086776;28;20270;-51
2022/12/06 04:08:40;;;;;;;8.67;7.77;;;;;19.40;100754.00;;;;2086423;28;20232;-51
2022/12/06 04:10:01;;;;;;;8.27;7.47;;;;;19.40;100757.00;;;;2086733;28;20270;-54
2022/12/06 04:11:01;;;;;;;9.60;8.48;;;;;19.40;100748.00;;;;2086876;28;20215;-51
2022/12/06 04:12:01;;;;;;;8.73;7.83;;;;;19.40;100751.00;;;;2085685;28;20212;-53
2022/12/06 04:13:04;;;;;;;9.53;8.20;;;;;19.40;100749.00;;;;2087049;28;20225;-53
2022/12/06 04:14:04;;;;;;;10.55;8.90;;;;;19.30;100747.00;;;;2086269;28;20889;-52
2022/12/06 04:15:05;;;;;;;10.40;8.90;;;;;19.40;100745.00;;;;2087063;28;20209;-52
2022/12/06 04:18:09;;;;;;;9.52;8.02;;;;;19.30;100743.00;;;;2086995;28;20209;-53
2022/12/06 04:18:46;;;;;;;9.60;8.40;;;;;19.30;100746.00;;;;2080323;28;20236;-53
2022/12/06 04:19:46;;;;;;;9.70;8.47;;;;;19.30;100737.00;;;;2081144;28;20311;-52
2022/12/06 04:23:39;;;;;;;9.85;8.85;;;;;19.30;100743.00;;;;2086501;28;20647;-51
2022/12/06 04:24:39;;;;;;;9.70;8.35;;;;;19.40;100742.00;;;;2086976;28;20228;-53
2022/12/06 04:25:40;;;;;;;9.47;8.47;;;;;19.40;100730.00;;;;2086862;28;20239;-53
2022/12/06 04:26:40;;;;;;;9.80;8.17;;;;;19.30;100747.00;;;;2082524;28;20590;-52
2022/12/06 04:39:31;;;;;;;8.75;7.85;;;;;19.30;100743.00;;;;2086719;28;20216;-51
2022/12/06 04:40:32;;;;;;;10.43;8.83;;;;;19.30;100741.00;;;;2083457;28;20656;-52
2022/12/06 04:44:10;;;;;;;10.52;8.80;;;;;19.30;100740.00;;;;2077449;28;20725;-53
2022/12/06 04:45:11;;;;;;;10.47;9.37;;;;;19.30;100743.00;;;;2086051;28;20209;-52
2022/12/06 04:46:13;;;;;;;10.33;8.17;;;;;19.30;100739.00;;;;2084913;28;20212;-53
2022/12/06 04:47:13;;;;;;;9.50;8.50;;;;;19.30;100748.00;;;;2086767;28;20573;-51
2022/12/06 04:48:13;;;;;;;11.53;7.90;;;;;19.30;100751.00;;;;2086853;28;20262;-52
2022/12/06 04:49:14;;;;;;;8.40;7.50;;;;;19.30;100748.00;;;;2086972;28;20678;-52
2022/12/06 04:50:14;;;;;;;9.47;8.47;;;;;19.30;100745.00;;;;2085106;28;20859;-54
2022/12/06 04:51:15;;;;;;;8.80;7.83;;;;;19.30;100751.00;;;;2078733;28;20587;-53
2022/12/06 04:52:15;;;;;;;8.60;7.70;;;;;19.20;100759.00;;;;2077425;28;20221;-52
2022/12/06 04:53:16;;;;;;;10.10;8.27;;;;;19.30;100756.00;;;;2078721;28;20471;-52
2022/12/06 04:54:16;;;;;;;8.83;7.93;;;;;19.30;100749.00;;;;2078355;28;20347;-52
2022/12/06 04:55:16;;;;;;;8.83;7.87;;;;;19.30;100744.00;;;;2079507;28;20223;-50
2022/12/06 04:56:17;;;;;;;11.53;7.83;;;;;19.30;100755.00;;;;2078578;28;20248;-51
2022/12/06 04:57:17;;;;;;;9.83;7.57;;;;;19.30;100755.00;;;;2078504;28;20214;-54
2022/12/06 04:58:17;;;;;;;8.30;7.40;;;;;19.30;100745.00;;;;2071706;28;20224;-52
2022/12/06 04:59:18;;;;;;;9.87;8.87;;;;;19.30;100746.00;;;;2077968;28;20213;-51
2022/12/06 05:00:19;;;;;;;9.02;8.00;;;;;19.20;100749.00;;;;2077936;28;20740;-52
2022/12/06 05:01:19;;;;;;;8.80;7.40;;;;;19.20;100743.00;;;;2078151;28;20240;-53
2022/12/06 05:02:20;;;;;;;9.30;8.27;;;;;19.30;100744.00;;;;2078337;28;20221;-52
2022/12/06 05:03:20;;;;;;;9.43;7.63;;;;;19.30;100754.00;;;;2079902;28;20225;-52
2022/12/06 05:04:21;;;;;;;9.30;8.40;;;;;19.30;100752.00;;;;2080194;28;20218;-51
2022/12/06 05:05:21;;;;;;;9.87;8.87;;;;;19.30;100746.00;;;;2087804;28;20220;-51
2022/12/06 05:06:21;;;;;;;7.80;7.00;;;;;19.20;100747.00;;;;2088248;28;20212;-51
2022/12/06 05:07:22;;;;;;;11.00;9.03;;;;;19.30;100751.00;;;;2088485;28;20209;-54
2022/12/06 05:08:22;;;;;;;9.57;7.73;;;;;19.30;100752.00;;;;2088037;28;20715;-53
2022/12/06 05:09:22;;;;;;;8.43;7.53;;;;;19.20;100745.00;;;;2088170;28;20559;-54
2022/12/06 05:10:23;;;;;;;9.20;8.20;;;;;19.20;100744.00;;;;2088386;28;20705;-54
2022/12/06 05:11:23;;;;;;;8.70;7.80;;;;;19.20;100740.00;;;;2088375;28;20913;-52
2022/12/06 05:12:23;;;;;;;9.63;8.57;;;;;19.20;100742.00;;;;2087137;28;20216;-53
2022/12/06 05:13:24;;;;;;;8.77;7.70;;;;;19.20;100742.00;;;;2084877;28;20719;-53
2022/12/06 05:14:24;;;;;;;9.60;8.60;;;;;19.20;100737.00;;;;2079617;28;20577;-54
2022/12/06 05:15:24;;;;;;;9.20;8.30;;;;;19.20;100738.00;;;;2080158;28;20653;-53
2022/12/06 05:16:25;;;;;;;8.70;7.83;;;;;19.20;100737.00;;;;2080068;28;20278;-53
2022/12/06 05:17:25;;;;;;;8.53;7.73;;;;;19.20;100736.00;;;;2087084;28;20212;-53
2022/12/06 05:18:25;;;;;;;8.87;7.97;;;;;19.20;100742.00;;;;2088042;28;20201;-54
2022/12/06 05:19:26;;;;;;;8.83;7.73;;;;;19.20;100741.00;;;;2087943;28;20209;-53
2022/12/06 05:20:27;;;;;;;8.87;7.97;;;;;19.20;100739.00;;;;2088203;28;20343;-54
2022/12/06 05:21:27;;;;;;;8.77;7.70;;;;;19.20;100736.00;;;;2085325;28;20206;-53
2022/12/06 05:22:31;;;;;;;7.80;7.00;;;;;19.20;100739.00;;;;2078804;28;20252;-53
2022/12/06 05:23:32;;;;;;;8.73;7.90;;;;;19.20;100740.00;;;;2079699;28;20245;-54
2022/12/06 05:24:33;;;;;;;9.40;8.30;;;;;19.20;100742.00;;;;2078896;28;20221;-54
2022/12/06 05:25:33;;;;;;;12.27;8.70;;;;;19.20;100739.00;;;;2086432;28;20486;-54
2022/12/06 05:26:33;;;;;;;8.50;7.70;;;;;19.20;100741.00;;;;2088231;28;20969;-53
2022/12/06 05:27:34;;;;;;;9.07;8.10;;;;;19.20;100732.00;;;;2088042;28;24045;-53
2022/12/06 05:28:34;;;;;;;8.10;7.30;;;;;19.20;100740.00;;;;2088109;28;20902;-54
2022/12/06 05:29:34;;;;;;;8.33;7.40;;;;;19.20;100728.00;;;;2088272;28;20303;-53
2022/12/06 05:30:35;;;;;;;8.33;7.30;;;;;19.20;100735.00;;;;2088016;28;20220;-53